Time;durP1;ratioP1;P1;durP2;ratioP2;P2;SDS_P1;SDS_P2;PMS_P1;PMS_P2;Temp;Humidity;BMP_temperature;BMP_pressure;BME280_temperature;BME280_humidity;BME280_pressure;Samples;Min_cycle;Max_cycle;Signal;HPM_P1;HPM_P2
2021/12/10 00:21:29;;;;;;;4.32;3.92;;;;;;;;;;4110711;34;20109;-64
2021/12/10 00:23:56;;;;;;;5.25;4.57;;;;;;;;;;4110668;34;20197;-64
2021/12/10 00:26:23;;;;;;;5.05;3.95;;;;;;;;;;4110792;34;20218;-64
2021/12/10 00:28:50;;;;;;;4.43;3.50;;;;;;;;;;4110804;34;20143;-64
2021/12/10 00:31:45;;;;;;;4.90;3.62;;;;;;;;;;4110701;34;20124;-63
2021/12/10 00:34:27;;;;;;;4.95;4.45;;;;;;;;;;4100536;34;20132;-64
2021/12/10 00:36:55;;;;;;;5.15;4.62;;;;;;;;;;4098347;34;20492;-64
2021/12/10 00:39:27;;;;;;;4.60;4.10;;;;;;;;;;4110658;34;20181;-64
2021/12/10 00:41:54;;;;;;;5.18;3.75;;;;;;;;;;4109945;34;20113;-63
2021/12/10 00:44:20;;;;;;;7.70;4.35;;;;;;;;;;4110494;34;20218;-63
2021/12/10 00:46:46;;;;;;;4.65;3.92;;;;;;;;;;4109219;34;20119;-64
2021/12/10 00:49:12;;;;;;;5.30;4.00;;;;;;;;;;4110844;34;20132;-63
2021/12/10 00:51:40;;;;;;;4.28;3.83;;;;;;;;;;4110624;34;20465;-63
2021/12/10 00:54:08;;;;;;;6.55;4.00;;;;;;;;;;4110606;34;20495;-63
2021/12/10 00:56:35;;;;;;;5.70;4.65;;;;;;;;;;4110517;34;20131;-63
2021/12/10 00:59:01;;;;;;;4.70;4.18;;;;;;;;;;4110459;34;20210;-63
2021/12/10 01:01:30;;;;;;;5.37;4.28;;;;;;;;;;4110537;34;20124;-63
2021/12/10 01:04:01;;;;;;;6.78;5.53;;;;;;;;;;4110355;34;20127;-64
2021/12/10 01:06:27;;;;;;;6.47;4.85;;;;;;;;;;4110409;34;20096;-63
2021/12/10 01:08:59;;;;;;;5.37;4.60;;;;;;;;;;4110564;34;20123;-64
2021/12/10 01:11:32;;;;;;;6.60;5.12;;;;;;;;;;4110485;34;20222;-63
2021/12/10 01:14:11;;;;;;;7.40;5.10;;;;;;;;;;4110329;34;20104;-64
2021/12/10 01:27:28;;;;;;;7.53;6.07;;;;;;;;;;4110331;34;20142;-64
2021/12/10 01:29:57;;;;;;;6.07;5.32;;;;;;;;;;4099427;34;20124;-64
2021/12/10 01:32:43;;;;;;;7.85;6.07;;;;;;;;;;4097921;34;20143;-64
2021/12/10 01:35:10;;;;;;;;;;;;;;;;;;4110861;34;20124;-64
2021/12/10 01:37:36;;;;;;;6.50;5.90;;;;;;;;;;4110589;34;19976;-64
2021/12/10 01:40:04;;;;;;;8.00;5.62;;;;;;;;;;4110208;34;20199;-64
2021/12/10 01:42:46;;;;;;;7.05;5.75;;;;;;;;;;4110184;34;20529;-64
2021/12/10 01:45:20;;;;;;;5.95;5.00;;;;;;;;;;4110094;34;20206;-64
2021/12/10 01:47:50;;;;;;;8.48;5.70;;;;;;;;;;4098161;34;20116;-64
2021/12/10 01:50:16;;;;;;;6.10;5.50;;;;;;;;;;4108684;34;20139;-64
2021/12/10 01:52:43;;;;;;;6.25;5.65;;;;;;;;;;4097517;34;20572;-64
2021/12/10 01:55:09;;;;;;;7.37;5.40;;;;;;;;;;4109808;34;20128;-64
2021/12/10 01:57:37;;;;;;;5.80;5.18;;;;;;;;;;4108858;34;20194;-64
2021/12/10 02:00:08;;;;;;;6.43;5.05;;;;;;;;;;4110051;34;20148;-64
2021/12/10 02:02:36;;;;;;;5.93;4.97;;;;;;;;;;4110138;34;20111;-64
2021/12/10 02:05:04;;;;;;;7.57;5.15;;;;;;;;;;4109815;34;20116;-64
2021/12/10 02:07:30;;;;;;;5.53;4.78;;;;;;;;;;4110047;34;20522;-64
2021/12/10 02:09:57;;;;;;;5.72;5.07;;;;;;;;;;4109952;34;20127;-64
2021/12/10 02:12:23;;;;;;;6.10;5.50;;;;;;;;;;4086810;34;20461;-64
2021/12/10 02:14:58;;;;;;;5.75;5.12;;;;;;;;;;4108538;34;20116;-64
2021/12/10 02:17:38;;;;;;;5.82;5.22;;;;;;;;;;4109943;34;20230;-64
2021/12/10 02:20:12;;;;;;;5.93;5.32;;;;;;;;;;4109845;34;21172;-64
2021/12/10 02:22:39;;;;;;;6.20;5.15;;;;;;;;;;4109916;34;20121;-64
2021/12/10 02:25:06;;;;;;;6.15;5.55;;;;;;;;;;4109687;34;20112;-64
2021/12/10 02:27:33;;;;;;;6.05;5.45;;;;;;;;;;4109849;34;20111;-64
2021/12/10 02:29:59;;;;;;;7.07;5.70;;;;;;;;;;4109875;34;20616;-64
2021/12/10 02:32:26;;;;;;;5.32;4.60;;;;;;;;;;4109993;34;20118;-64
2021/12/10 02:34:54;;;;;;;7.90;5.20;;;;;;;;;;4109706;34;20144;-64
2021/12/10 02:37:21;;;;;;;6.35;5.00;;;;;;;;;;4109761;34;20131;-64
2021/12/10 02:39:47;;;;;;;6.75;4.97;;;;;;;;;;4109714;34;20202;-63
2021/12/10 02:42:13;;;;;;;6.12;5.53;;;;;;;;;;4109680;34;20112;-64
2021/12/10 02:44:39;;;;;;;7.28;5.32;;;;;;;;;;4097103;34;20120;-64
2021/12/10 02:47:05;;;;;;;6.72;5.82;;;;;;;;;;4097542;34;20556;-63
2021/12/10 02:49:31;;;;;;;9.18;6.50;;;;;;;;;;4109706;34;20097;-63
2021/12/10 02:51:58;;;;;;;7.50;6.28;;;;;;;;;;4097239;34;20206;-63
2021/12/10 02:54:33;;;;;;;7.43;6.57;;;;;;;;;;4109464;34;20131;-63
2021/12/10 02:57:14;;;;;;;10.27;6.18;;;;;;;;;;4109544;34;20112;-63
2021/12/10 02:59:40;;;;;;;9.43;6.65;;;;;;;;;;4109511;34;20128;-63
2021/12/10 03:02:11;;;;;;;10.07;7.30;;;;;;;;;;4108307;34;20100;-63
2021/12/10 03:04:38;;;;;;;8.75;7.15;;;;;;;;;;4096584;34;20480;-63
2021/12/10 03:07:11;;;;;;;8.73;7.28;;;;;;;;;;4109349;34;20601;-63
2021/12/10 03:09:39;;;;;;;9.25;6.70;;;;;;;;;;4109665;34;20548;-63
2021/12/10 03:12:05;;;;;;;9.63;7.10;;;;;;;;;;4097001;34;20298;-63
2021/12/10 03:14:34;;;;;;;10.77;7.93;;;;;;;;;;4096932;34;20548;-63
2021/12/10 03:17:05;;;;;;;10.38;6.93;;;;;;;;;;4096992;34;20139;-63
2021/12/10 03:19:31;;;;;;;11.00;6.78;;;;;;;;;;4109455;34;20088;-63
2021/12/10 03:21:57;;;;;;;6.93;6.22;;;;;;;;;;4109208;34;20210;-63
2021/12/10 03:24:26;;;;;;;10.10;6.07;;;;;;;;;;4107883;34;20540;-62
2021/12/10 03:26:53;;;;;;;6.90;5.45;;;;;;;;;;4109167;34;20183;-62
2021/12/10 03:29:24;;;;;;;10.05;6.45;;;;;;;;;;4096871;34;20123;-62
2021/12/10 03:31:52;;;;;;;10.60;6.93;;;;;;;;;;4109090;34;20120;-62
2021/12/10 03:34:18;;;;;;;8.63;6.30;;;;;;;;;;4109102;34;20119;-63
2021/12/10 03:36:46;;;;;;;10.70;7.03;;;;;;;;;;4097054;34;20119;-61
2021/12/10 03:39:17;;;;;;;9.15;6.68;;;;;;;;;;4097087;34;20508;-62
2021/12/10 03:41:44;;;;;;;11.65;6.97;;;;;;;;;;4109071;34;20132;-62
2021/12/10 03:44:10;;;;;;;12.00;7.43;;;;;;;;;;4108896;34;20095;-62
2021/12/10 03:46:37;;;;;;;13.38;8.55;;;;;;;;;;4109116;34;20136;-62
2021/12/10 03:49:05;;;;;;;13.43;9.02;;;;;;;;;;4108941;34;20122;-61
2021/12/10 03:51:32;;;;;;;17.27;9.30;;;;;;;;;;4109111;34;20130;-62
2021/12/10 03:53:58;;;;;;;12.77;8.73;;;;;;;;;;4108895;34;20124;-63
2021/12/10 03:56:26;;;;;;;16.12;9.95;;;;;;;;;;4108893;34;20200;-63
2021/12/10 03:58:54;;;;;;;18.27;9.35;;;;;;;;;;4109215;34;20107;-61
2021/12/10 04:01:24;;;;;;;16.45;10.63;;;;;;;;;;4108972;34;20116;-63
2021/12/10 04:03:51;;;;;;;18.83;10.80;;;;;;;;;;4108700;34;20520;-63
2021/12/10 04:06:18;;;;;;;19.95;10.90;;;;;;;;;;4108652;34;20182;-62
2021/12/10 04:08:44;;;;;;;18.15;10.75;;;;;;;;;;4108815;34;20107;-63
2021/12/10 04:11:10;;;;;;;14.35;9.82;;;;;;;;;;4108812;34;20116;-63
2021/12/10 04:13:36;;;;;;;19.62;10.80;;;;;;;;;;4108789;34;20102;-63
2021/12/10 04:16:07;;;;;;;16.77;10.80;;;;;;;;;;4109177;34;20238;-64
2021/12/10 04:18:35;;;;;;;16.00;10.48;;;;;;;;;;4110926;34;20099;-63
2021/12/10 04:21:03;;;;;;;17.45;10.43;;;;;;;;;;4110778;34;20552;-63
2021/12/10 04:23:29;;;;;;;19.33;12.50;;;;;;;;;;4110868;34;20115;-64
2021/12/10 04:25:55;;;;;;;20.17;12.25;;;;;;;;;;4110513;34;20555;-63
2021/12/10 04:28:22;;;;;;;20.58;11.05;;;;;;;;;;4110790;34;20489;-62
2021/12/10 04:30:49;;;;;;;15.57;10.30;;;;;;;;;;4110879;34;20199;-61
2021/12/10 04:33:17;;;;;;;18.27;12.20;;;;;;;;;;4110945;34;20104;-59
2021/12/10 04:35:46;;;;;;;17.77;12.52;;;;;;;;;;4110877;34;20112;-58
2021/12/10 04:38:13;;;;;;;19.73;13.45;;;;;;;;;;4110803;34;20488;-59
2021/12/10 04:40:40;;;;;;;15.93;11.48;;;;;;;;;;4110744;34;20536;-59
2021/12/10 04:43:06;;;;;;;13.55;11.10;;;;;;;;;;4110643;34;20191;-59
2021/12/10 04:45:32;;;;;;;12.20;9.10;;;;;;;;;;4110592;34;20116;-59
2021/12/10 04:47:58;;;;;;;11.75;8.65;;;;;;;;;;4110701;34;20112;-59
2021/12/10 04:50:27;;;;;;;12.25;8.43;;;;;;;;;;4110536;34;20128;-59
2021/12/10 04:52:54;;;;;;;12.02;9.80;;;;;;;;;;4110571;34;20110;-59
2021/12/10 04:55:22;;;;;;;12.55;8.70;;;;;;;;;;4110605;34;20127;-59
2021/12/10 04:57:48;;;;;;;12.63;9.68;;;;;;;;;;4110662;34;20187;-59
2021/12/10 05:00:19;;;;;;;18.73;9.27;;;;;;;;;;4110395;34;20581;-60
2021/12/10 05:02:45;;;;;;;11.40;9.18;;;;;;;;;;4110614;34;20694;-61
2021/12/10 05:05:12;;;;;;;10.27;8.50;;;;;;;;;;4110510;34;20213;-60
2021/12/10 05:07:38;;;;;;;14.02;7.97;;;;;;;;;;4110937;34;20595;-61
2021/12/10 05:10:06;;;;;;;13.20;9.65;;;;;;;;;;4110250;34;20101;-62
2021/12/10 05:12:33;;;;;;;12.10;8.63;;;;;;;;;;4110431;34;20525;-62
2021/12/10 05:15:00;;;;;;;11.25;8.88;;;;;;;;;;4110225;34;20115;-62
2021/12/10 05:17:30;;;;;;;12.05;8.80;;;;;;;;;;4110418;34;20206;-62
2021/12/10 05:19:59;;;;;;;11.07;8.25;;;;;;;;;;4110206;34;20119;-62
2021/12/10 05:22:25;;;;;;;10.27;8.07;;;;;;;;;;4110436;34;20103;-62
2021/12/10 05:24:51;;;;;;;14.55;9.70;;;;;;;;;;4110013;34;20108;-61
2021/12/10 05:27:17;;;;;;;10.85;8.98;;;;;;;;;;4110236;34;20115;-62
2021/12/10 05:29:43;;;;;;;11.40;8.93;;;;;;;;;;4109940;34;20120;-62
2021/12/10 05:32:11;;;;;;;10.65;9.05;;;;;;;;;;4110259;34;20238;-62
2021/12/10 05:34:40;;;;;;;10.15;9.10;;;;;;;;;;4097967;34;20226;-62
2021/12/10 05:37:07;;;;;;;13.90;10.38;;;;;;;;;;4110149;34;20104;-62
2021/12/10 05:39:33;;;;;;;13.13;10.38;;;;;;;;;;4110143;34;20143;-62
2021/12/10 05:42:01;;;;;;;10.95;9.90;;;;;;;;;;4110192;34;20131;-62
2021/12/10 05:44:27;;;;;;;15.93;10.70;;;;;;;;;;4110110;34;20123;-61
2021/12/10 05:46:53;;;;;;;14.48;11.63;;;;;;;;;;4110200;34;20106;-60
2021/12/10 05:49:19;;;;;;;14.52;10.90;;;;;;;;;;4109996;34;20100;-61
2021/12/10 05:51:45;;;;;;;11.02;9.60;;;;;;;;;;4110152;34;20131;-61
2021/12/10 05:54:11;;;;;;;14.68;10.32;;;;;;;;;;4110066;34;20089;-58
2021/12/10 05:56:37;;;;;;;12.55;10.07;;;;;;;;;;4109948;34;20123;-58
2021/12/10 05:59:04;;;;;;;11.20;9.98;;;;;;;;;;4097879;34;20116;-59
2021/12/10 06:01:31;;;;;;;14.63;10.30;;;;;;;;;;4110148;34;20210;-59
2021/12/10 06:03:57;;;;;;;12.32;10.27;;;;;;;;;;4109819;34;20453;-62
2021/12/10 06:06:26;;;;;;;13.90;11.12;;;;;;;;;;4110103;34;20230;-61
2021/12/10 06:08:54;;;;;;;13.77;9.95;;;;;;;;;;4109909;34;20100;-62
2021/12/10 06:11:21;;;;;;;14.85;11.15;;;;;;;;;;4110031;34;20485;-62
2021/12/10 06:13:48;;;;;;;14.50;10.90;;;;;;;;;;4109796;34;20227;-62
2021/12/10 06:16:14;;;;;;;14.10;10.98;;;;;;;;;;4109645;34;20708;-62
2021/12/10 06:18:41;;;;;;;14.65;11.98;;;;;;;;;;4109959;34;20116;-62
2021/12/10 06:21:07;;;;;;;15.85;12.07;;;;;;;;;;4109788;34;20557;-62
2021/12/10 06:23:33;;;;;;;11.90;10.60;;;;;;;;;;4110227;34;20092;-62
2021/12/10 06:25:59;;;;;;;12.48;10.70;;;;;;;;;;4109789;34;20124;-62
2021/12/10 06:28:25;;;;;;;12.60;10.95;;;;;;;;;;4109851;34;20175;-62
2021/12/10 06:30:52;;;;;;;12.70;11.00;;;;;;;;;;4109795;34;20111;-66
2021/12/10 06:33:21;;;;;;;13.23;10.93;;;;;;;;;;4109761;34;20552;-65
2021/12/10 06:35:50;;;;;;;13.75;11.05;;;;;;;;;;4109809;34;20615;-62
2021/12/10 06:38:17;;;;;;;15.35;11.15;;;;;;;;;;4109781;34;20218;-62
2021/12/10 06:40:44;;;;;;;14.32;11.52;;;;;;;;;;4103273;34;20115;-62
2021/12/10 06:43:13;;;;;;;15.18;11.55;;;;;;;;;;4109721;34;20485;-61
2021/12/10 06:45:41;;;;;;;11.98;10.68;;;;;;;;;;4097276;34;20103;-62
2021/12/10 06:48:08;;;;;;;15.70;11.15;;;;;;;;;;4109709;34;20093;-64
2021/12/10 06:50:47;;;;;;;16.90;11.93;;;;;;;;;;4109592;34;20218;-62
2021/12/10 06:53:15;;;;;;;15.20;11.05;;;;;;;;;;4109624;34;20098;-61
2021/12/10 06:55:41;;;;;;;15.52;11.20;;;;;;;;;;4109425;34;20207;-62
2021/12/10 06:58:08;;;;;;;15.52;10.55;;;;;;;;;;4109645;34;20116;-63
2021/12/10 07:00:43;;;;;;;14.77;11.40;;;;;;;;;;4109529;34;20187;-62
2021/12/10 07:03:12;;;;;;;14.87;10.65;;;;;;;;;;4109863;34;20430;-63
2021/12/10 07:05:39;;;;;;;15.35;10.88;;;;;;;;;;4109177;34;20237;-62
2021/12/10 07:08:05;;;;;;;16.30;11.20;;;;;;;;;;4109488;34;20144;-62
2021/12/10 07:10:32;;;;;;;13.95;10.77;;;;;;;;;;4109449;34;20116;-62
2021/12/10 07:12:58;;;;;;;13.90;10.77;;;;;;;;;;4109397;34;20108;-63
2021/12/10 07:15:25;;;;;;;12.70;10.75;;;;;;;;;;4103878;34;20108;-62
2021/12/10 07:17:51;;;;;;;17.20;11.20;;;;;;;;;;4109414;34;20104;-62
2021/12/10 07:20:20;;;;;;;15.15;10.35;;;;;;;;;;4109178;34;20202;-61
2021/12/10 07:22:46;;;;;;;11.68;10.48;;;;;;;;;;4109347;34;20104;-61
2021/12/10 07:25:12;;;;;;;13.77;10.50;;;;;;;;;;4107834;34;20115;-61
2021/12/10 07:27:38;;;;;;;14.55;10.38;;;;;;;;;;4109289;34;20612;-63
2021/12/10 07:30:07;;;;;;;12.27;10.43;;;;;;;;;;4109226;34;20119;-63
2021/12/10 07:32:36;;;;;;;14.30;10.70;;;;;;;;;;4109217;34;20118;-61
2021/12/10 07:35:05;;;;;;;14.10;10.65;;;;;;;;;;4096727;34;20103;-61
2021/12/10 07:37:31;;;;;;;13.05;10.68;;;;;;;;;;4109265;34;20120;-64
2021/12/10 07:39:57;;;;;;;16.00;10.60;;;;;;;;;;4109094;34;20135;-61
2021/12/10 07:42:23;;;;;;;15.65;10.73;;;;;;;;;;4109174;34;20500;-62
2021/12/10 07:44:50;;;;;;;15.07;10.75;;;;;;;;;;4104929;34;20131;-62
2021/12/10 07:47:17;;;;;;;13.57;10.35;;;;;;;;;;4108374;34;20203;-61
2021/12/10 07:49:44;;;;;;;15.02;10.48;;;;;;;;;;4108718;34;20148;-60
2021/12/10 07:52:17;;;;;;;13.52;10.60;;;;;;;;;;4109242;34;20127;-62
2021/12/10 07:54:47;;;;;;;14.73;10.25;;;;;;;;;;4098344;34;20127;-61
2021/12/10 07:57:16;;;;;;;15.70;11.32;;;;;;;;;;4098885;34;20198;-62
2021/12/10 07:59:43;;;;;;;14.52;10.82;;;;;;;;;;4111892;34;20108;-62
2021/12/10 08:02:09;;;;;;;15.80;11.07;;;;;;;;;;4110332;34;20104;-61
2021/12/10 08:04:36;;;;;;;15.25;10.50;;;;;;;;;;4107353;34;20112;-62
2021/12/10 08:07:02;;;;;;;13.60;9.93;;;;;;;;;;4112735;34;20119;-61
2021/12/10 08:09:29;;;;;;;15.38;10.02;;;;;;;;;;4112894;34;20191;-63
2021/12/10 08:11:55;;;;;;;14.65;10.10;;;;;;;;;;4110542;34;20199;-62
2021/12/10 08:14:21;;;;;;;14.30;9.95;;;;;;;;;;4110127;34;20112;-62
2021/12/10 08:16:47;;;;;;;16.48;10.98;;;;;;;;;;4110550;34;20120;-62
2021/12/10 08:19:14;;;;;;;13.82;9.65;;;;;;;;;;4110442;34;20342;-63
2021/12/10 08:21:41;;;;;;;15.73;10.05;;;;;;;;;;4110207;34;20187;-63
2021/12/10 08:24:07;;;;;;;16.00;10.07;;;;;;;;;;4110380;34;20217;-62
2021/12/10 08:26:33;;;;;;;12.98;9.15;;;;;;;;;;4084575;35;20207;-62
2021/12/10 08:28:59;;;;;;;14.52;10.90;;;;;;;;;;4097178;35;20127;-62
2021/12/10 08:31:28;;;;;;;14.05;10.10;;;;;;;;;;4108425;34;20088;-62
2021/12/10 08:33:54;;;;;;;13.27;9.80;;;;;;;;;;4110315;34;20191;-62
2021/12/10 08:36:21;;;;;;;13.52;9.75;;;;;;;;;;4110616;34;20124;-63
2021/12/10 08:38:47;;;;;;;14.38;9.00;;;;;;;;;;4110089;34;20128;-63
2021/12/10 08:41:18;;;;;;;14.40;9.85;;;;;;;;;;4110204;34;20135;-63
2021/12/10 08:43:45;;;;;;;15.23;10.75;;;;;;;;;;4110339;34;20104;-62
2021/12/10 08:46:13;;;;;;;13.45;9.48;;;;;;;;;;4110077;34;20112;-61
2021/12/10 08:48:39;;;;;;;14.60;9.82;;;;;;;;;;4110325;34;20514;-62
2021/12/10 08:51:10;;;;;;;13.05;9.43;;;;;;;;;;4097797;34;20112;-62
2021/12/10 08:53:36;;;;;;;15.23;9.48;;;;;;;;;;4109358;34;20103;-62
2021/12/10 08:56:03;;;;;;;13.65;9.45;;;;;;;;;;4110201;34;20143;-62
2021/12/10 08:58:29;;;;;;;11.63;8.98;;;;;;;;;;4110337;34;20207;-62
2021/12/10 09:00:58;;;;;;;13.88;8.48;;;;;;;;;;4110177;34;20124;-62
2021/12/10 09:03:24;;;;;;;10.00;8.65;;;;;;;;;;4109285;34;20142;-62
2021/12/10 09:05:50;;;;;;;14.40;10.05;;;;;;;;;;4110246;34;20131;-62
2021/12/10 09:08:16;;;;;;;12.77;9.50;;;;;;;;;;4110289;34;20096;-61
2021/12/10 09:10:45;;;;;;;16.70;9.55;;;;;;;;;;4109910;34;20120;-61
2021/12/10 09:13:16;;;;;;;10.57;8.52;;;;;;;;;;4097875;34;20131;-62
2021/12/10 09:15:45;;;;;;;14.55;9.10;;;;;;;;;;4109723;34;20465;-62
2021/12/10 09:18:11;;;;;;;14.50;9.27;;;;;;;;;;4110320;34;20609;-62
2021/12/10 09:20:41;;;;;;;13.32;8.95;;;;;;;;;;4109726;34;20146;-61
2021/12/10 09:23:10;;;;;;;11.15;9.02;;;;;;;;;;4097674;34;20544;-62
2021/12/10 09:25:37;;;;;;;9.98;8.95;;;;;;;;;;4109853;34;20199;-62
2021/12/10 09:28:03;;;;;;;12.43;8.85;;;;;;;;;;4110066;34;20112;-62
2021/12/10 09:30:31;;;;;;;13.15;9.10;;;;;;;;;;4097656;34;20099;-62
2021/12/10 09:32:58;;;;;;;12.48;8.90;;;;;;;;;;4109977;34;20201;-62
2021/12/10 09:35:26;;;;;;;11.05;8.77;;;;;;;;;;4109832;34;20131;-62
2021/12/10 09:37:52;;;;;;;13.25;9.18;;;;;;;;;;4110054;34;20096;-61
2021/12/10 09:40:34;;;;;;;11.70;8.65;;;;;;;;;;4097372;34;20100;-60
2021/12/10 09:43:02;;;;;;;29.33;10.10;;;;;;;;;;4109979;34;20089;-60
2021/12/10 09:45:31;;;;;;;9.60;8.43;;;;;;;;;;4109628;34;20218;-61
2021/12/10 09:47:58;;;;;;;10.70;7.78;;;;;;;;;;4097656;34;20222;-61
2021/12/10 09:50:26;;;;;;;10.43;7.70;;;;;;;;;;4110192;34;20127;-61
2021/12/10 09:52:54;;;;;;;9.77;7.78;;;;;;;;;;4108457;34;20128;-61
2021/12/10 09:55:21;;;;;;;14.20;9.15;;;;;;;;;;4109623;34;20116;-61
2021/12/10 09:57:50;;;;;;;13.10;7.95;;;;;;;;;;4109917;34;20590;-61
2021/12/10 10:00:27;;;;;;;11.68;8.27;;;;;;;;;;4109852;34;20112;-61
2021/12/10 10:02:55;;;;;;;10.15;7.93;;;;;;;;;;4109982;34;20127;-65
2021/12/10 10:05:26;;;;;;;10.23;7.70;;;;;;;;;;4109448;34;20112;-65
2021/12/10 10:07:55;;;;;;;8.90;7.50;;;;;;;;;;4109875;34;20148;-65
2021/12/10 10:10:21;;;;;;;10.85;8.05;;;;;;;;;;4109793;34;20740;-65
2021/12/10 10:12:50;;;;;;;11.32;7.07;;;;;;;;;;4097306;34;20118;-64
2021/12/10 10:15:21;;;;;;;9.60;7.80;;;;;;;;;;4109235;34;20100;-63
2021/12/10 10:17:48;;;;;;;9.82;7.87;;;;;;;;;;4109560;34;20191;-63
2021/12/10 10:20:15;;;;;;;10.23;7.57;;;;;;;;;;4107355;34;20124;-64
2021/12/10 10:22:44;;;;;;;12.48;7.40;;;;;;;;;;4097281;34;20123;-63
2021/12/10 10:25:11;;;;;;;8.93;7.00;;;;;;;;;;4109082;34;20306;-64
2021/12/10 10:27:40;;;;;;;9.80;6.97;;;;;;;;;;4109623;34;20522;-65
2021/12/10 10:30:14;;;;;;;9.60;7.55;;;;;;;;;;4109145;34;20139;-63
2021/12/10 10:32:44;;;;;;;11.48;7.87;;;;;;;;;;4109034;34;20107;-64
2021/12/10 10:35:17;;;;;;;13.85;7.72;;;;;;;;;;4096946;34;20123;-64
2021/12/10 10:37:44;;;;;;;11.27;7.05;;;;;;;;;;4097530;34;20104;-63
2021/12/10 10:40:18;;;;;;;8.40;7.00;;;;;;;;;;4097056;34;20108;-63
2021/12/10 10:42:44;;;;;;;7.65;6.90;;;;;;;;;;4096675;34;20119;-64
2021/12/10 10:45:17;;;;;;;21.75;8.77;;;;;;;;;;4096696;34;20089;-64
2021/12/10 10:47:48;;;;;;;11.32;6.95;;;;;;;;;;4086573;34;20127;-65
2021/12/10 10:50:21;;;;;;;14.32;7.05;;;;;;;;;;4096959;34;20150;-65
2021/12/10 10:52:53;;;;;;;12.40;7.97;;;;;;;;;;4106566;34;20120;-62
2021/12/10 10:55:41;;;;;;;11.60;7.65;;;;;;;;;;4103539;34;20120;-64
2021/12/10 10:58:11;;;;;;;9.75;7.50;;;;;;;;;;4083965;35;20498;-63
2021/12/10 11:01:07;;;;;;;10.57;6.62;;;;;;;;;;4083582;35;20309;-63
2021/12/10 11:03:42;;;;;;;12.50;7.15;;;;;;;;;;4095936;35;20584;-63
2021/12/10 11:06:17;;;;;;;13.60;8.25;;;;;;;;;;4095589;34;20113;-64
2021/12/10 11:08:47;;;;;;;14.95;7.40;;;;;;;;;;4095927;35;20115;-64
2021/12/10 11:11:28;;;;;;;9.75;6.90;;;;;;;;;;4089491;34;20149;-63
2021/12/10 11:14:05;;;;;;;9.48;7.25;;;;;;;;;;4096703;34;20483;-64
2021/12/10 11:16:33;;;;;;;9.35;6.72;;;;;;;;;;4108939;34;20123;-64
2021/12/10 11:19:07;;;;;;;16.95;7.18;;;;;;;;;;4108826;34;20104;-65
2021/12/10 11:21:42;;;;;;;9.48;7.32;;;;;;;;;;4096840;34;20119;-64
2021/12/10 11:24:31;;;;;;;14.63;7.67;;;;;;;;;;4108992;34;20131;-64
2021/12/10 11:27:03;;;;;;;8.40;6.37;;;;;;;;;;4096977;35;20177;-63
2021/12/10 11:29:35;;;;;;;8.18;7.35;;;;;;;;;;4098212;34;20127;-63
2021/12/10 11:32:08;;;;;;;12.40;7.28;;;;;;;;;;4111118;34;20137;-63
2021/12/10 11:34:57;;;;;;;8.95;6.57;;;;;;;;;;4110579;34;20116;-63
2021/12/10 11:37:42;;;;;;;8.07;7.28;;;;;;;;;;4111105;34;20225;-63
2021/12/10 11:40:40;;;;;;;9.40;6.80;;;;;;;;;;4111027;34;20112;-64
2021/12/10 11:48:40;;;;;;;36.90;8.18;;;;;;;;;;4110796;34;19990;-66
2021/12/10 11:51:16;;;;;;;8.38;6.50;;;;;;;;;;4098454;34;20226;-64
2021/12/10 11:53:54;;;;;;;7.87;6.50;;;;;;;;;;4109970;34;20127;-63
2021/12/10 11:56:24;;;;;;;7.32;5.97;;;;;;;;;;4110668;34;20115;-63
2021/12/10 11:59:11;;;;;;;7.43;6.72;;;;;;;;;;4098286;34;20139;-63
2021/12/10 12:02:04;;;;;;;6.97;6.28;;;;;;;;;;4110593;34;20237;-63
2021/12/10 12:04:45;;;;;;;7.28;6.50;;;;;;;;;;4110443;34;20517;-65
2021/12/10 12:07:46;;;;;;;8.55;6.93;;;;;;;;;;4109067;34;20572;-65
2021/12/10 12:10:26;;;;;;;9.07;6.62;;;;;;;;;;4110296;34;20209;-65
2021/12/10 12:12:55;;;;;;;8.32;6.50;;;;;;;;;;4110590;34;20103;-65
2021/12/10 12:15:26;;;;;;;7.90;7.10;;;;;;;;;;4109663;34;20132;-65
2021/12/10 12:18:06;;;;;;;9.82;6.97;;;;;;;;;;4110239;34;20146;-65
2021/12/10 12:20:44;;;;;;;7.90;7.10;;;;;;;;;;4102548;34;20620;-66
2021/12/10 12:26:23;;;;;;;7.35;6.65;;;;;;;;;;4110126;34;20104;-66
2021/12/10 12:28:55;;;;;;;6.90;6.20;;;;;;;;;;4110466;34;20115;-64
2021/12/10 12:31:27;;;;;;;8.77;6.07;;;;;;;;;;4109983;34;20506;-65
2021/12/10 12:34:07;;;;;;;7.70;6.12;;;;;;;;;;4109331;34;20111;-63
2021/12/10 12:36:51;;;;;;;8.48;6.30;;;;;;;;;;4110171;34;20116;-63
2021/12/10 12:39:48;;;;;;;10.40;7.15;;;;;;;;;;4110314;34;20540;-64
2021/12/10 12:42:24;;;;;;;6.90;5.55;;;;;;;;;;4104570;34;20131;-64
2021/12/10 12:44:52;;;;;;;7.05;6.35;;;;;;;;;;4109803;34;20219;-63
2021/12/10 12:47:29;;;;;;;8.48;6.37;;;;;;;;;;4110155;34;20129;-64
2021/12/10 12:49:57;;;;;;;7.50;6.80;;;;;;;;;;4110258;34;20128;-62
2021/12/10 12:52:45;;;;;;;7.75;6.43;;;;;;;;;;4098928;34;20512;-63
2021/12/10 12:55:20;;;;;;;6.93;6.22;;;;;;;;;;4108873;34;20136;-64
2021/12/10 12:58:08;;;;;;;7.70;5.72;;;;;;;;;;4107942;34;20239;-63
2021/12/10 13:00:40;;;;;;;11.70;6.57;;;;;;;;;;4108812;34;20220;-63
2021/12/10 13:03:14;;;;;;;8.63;5.95;;;;;;;;;;4097917;34;20216;-61
2021/12/10 13:05:52;;;;;;;7.65;6.00;;;;;;;;;;4097402;34;20215;-61
2021/12/10 13:08:22;;;;;;;7.65;6.37;;;;;;;;;;4110002;34;20190;-62
2021/12/10 13:11:05;;;;;;;8.40;6.40;;;;;;;;;;4109777;34;20568;-63
2021/12/10 13:13:44;;;;;;;6.87;5.43;;;;;;;;;;4110047;34;20496;-63
2021/12/10 13:16:12;;;;;;;10.27;6.22;;;;;;;;;;4109685;34;20516;-63
2021/12/10 13:18:41;;;;;;;7.12;5.78;;;;;;;;;;4109928;34;20119;-61
2021/12/10 13:21:09;;;;;;;6.82;6.12;;;;;;;;;;4109613;34;20127;-60
2021/12/10 13:23:36;;;;;;;8.18;6.47;;;;;;;;;;4109958;34;20651;-61
2021/12/10 13:26:04;;;;;;;7.78;5.65;;;;;;;;;;4109635;34;20132;-61
2021/12/10 13:28:31;;;;;;;7.75;5.97;;;;;;;;;;4109698;34;20210;-60
2021/12/10 13:31:05;;;;;;;12.37;6.32;;;;;;;;;;4109714;34;20096;-61
2021/12/10 13:33:39;;;;;;;7.35;6.00;;;;;;;;;;4109674;34;20551;-61
2021/12/10 13:36:06;;;;;;;6.72;6.03;;;;;;;;;;4109632;34;20213;-61
2021/12/10 13:38:33;;;;;;;7.30;6.05;;;;;;;;;;4109310;34;20169;-61
2021/12/10 13:41:01;;;;;;;8.82;6.03;;;;;;;;;;4110987;34;20124;-62
2021/12/10 13:43:29;;;;;;;8.43;6.75;;;;;;;;;;4097439;34;20103;-62
2021/12/10 13:46:08;;;;;;;8.50;6.72;;;;;;;;;;4096812;34;20123;-61
2021/12/10 13:48:40;;;;;;;6.90;5.85;;;;;;;;;;4108935;34;20510;-61
2021/12/10 13:51:11;;;;;;;16.90;6.40;;;;;;;;;;4112899;34;20506;-60
2021/12/10 13:53:37;;;;;;;10.18;6.22;;;;;;;;;;4107529;34;20127;-60
2021/12/10 13:56:12;;;;;;;7.45;6.60;;;;;;;;;;4114580;34;20128;-60
2021/12/10 13:58:56;;;;;;;10.05;6.93;;;;;;;;;;4114235;34;20127;-62
2021/12/10 14:01:27;;;;;;;7.75;6.18;;;;;;;;;;4109718;34;20141;-62
2021/12/10 14:04:16;;;;;;;7.00;5.72;;;;;;;;;;4109787;34;20115;-62
2021/12/10 14:06:47;;;;;;;11.35;5.85;;;;;;;;;;4109464;34;20112;-62
2021/12/10 14:09:31;;;;;;;8.23;6.75;;;;;;;;;;4109299;34;20227;-62
2021/12/10 14:12:32;;;;;;;9.00;6.40;;;;;;;;;;4109734;34;20196;-62
2021/12/10 14:15:37;;;;;;;10.70;6.47;;;;;;;;;;4097159;34;20172;-62
2021/12/10 14:18:20;;;;;;;7.75;6.10;;;;;;;;;;4109495;34;20116;-62
2021/12/10 14:20:51;;;;;;;9.43;6.95;;;;;;;;;;4109087;34;20131;-62
2021/12/10 14:23:23;;;;;;;9.50;6.90;;;;;;;;;;4109718;34;20310;-61
2021/12/10 14:25:56;;;;;;;9.40;7.25;;;;;;;;;;4096942;34;20139;-62
2021/12/10 14:28:41;;;;;;;39.17;8.45;;;;;;;;;;4109340;34;20112;-62
2021/12/10 14:31:11;;;;;;;11.33;6.67;;;;;;;;;;4086679;34;20214;-62
2021/12/10 14:33:45;;;;;;;10.90;7.47;;;;;;;;;;4109394;34;20101;-62
2021/12/10 14:36:14;;;;;;;9.20;6.50;;;;;;;;;;4109263;34;20577;-62
2021/12/10 14:38:49;;;;;;;15.35;7.10;;;;;;;;;;4109214;34;20209;-61
2021/12/10 14:41:15;;;;;;;8.55;6.72;;;;;;;;;;4109314;34;20124;-62
2021/12/10 14:43:54;;;;;;;9.45;7.12;;;;;;;;;;4109728;34;20122;-63
2021/12/10 14:46:33;;;;;;;10.35;5.95;;;;;;;;;;4109093;34;20168;-62
2021/12/10 14:49:23;;;;;;;7.25;6.00;;;;;;;;;;4109099;34;20136;-62
2021/12/10 14:52:17;;;;;;;9.00;6.07;;;;;;;;;;4096643;34;20184;-62
2021/12/10 14:55:05;;;;;;;7.65;5.93;;;;;;;;;;4109152;34;20099;-61
2021/12/10 14:57:49;;;;;;;6.78;5.95;;;;;;;;;;4109180;34;20709;-62
2021/12/10 15:00:27;;;;;;;8.30;6.72;;;;;;;;;;4108670;34;20155;-62
2021/12/10 15:03:22;;;;;;;8.73;6.95;;;;;;;;;;4109292;34;20185;-62
2021/12/10 15:05:56;;;;;;;9.52;5.57;;;;;;;;;;4109063;34;20151;-62
2021/12/10 15:08:47;;;;;;;9.80;6.45;;;;;;;;;;4096851;34;20100;-61
2021/12/10 15:11:27;;;;;;;8.88;6.95;;;;;;;;;;4108677;34;20188;-60
2021/12/10 15:13:55;;;;;;;10.20;6.80;;;;;;;;;;4109390;34;20107;-62
2021/12/10 15:16:46;;;;;;;7.45;6.22;;;;;;;;;;4109147;34;20115;-62
2021/12/10 15:19:25;;;;;;;8.52;6.87;;;;;;;;;;4108954;34;20127;-62
2021/12/10 15:21:55;;;;;;;9.10;7.07;;;;;;;;;;4096424;34;20112;-62
2021/12/10 15:24:29;;;;;;;10.30;7.45;;;;;;;;;;4108839;34;20561;-63
2021/12/10 15:27:08;;;;;;;8.10;7.03;;;;;;;;;;4107749;34;20194;-61
2021/12/10 15:29:36;;;;;;;9.23;7.78;;;;;;;;;;4108770;34;20116;-61
2021/12/10 15:32:17;;;;;;;11.23;7.90;;;;;;;;;;4109099;34;20108;-62
2021/12/10 15:34:51;;;;;;;16.75;8.10;;;;;;;;;;4108687;34;20100;-63